createdAt,value
2022-08-10T00:00:35.018Z,1.42
2022-08-10T00:03:02.114Z,1.42
2022-08-10T00:05:28.382Z,3.90
2022-08-10T00:08:10.233Z,1.75
2022-08-10T00:10:36.408Z,4.63
2022-08-10T00:13:02.569Z,6.10
2022-08-10T00:15:53.107Z,1.92
2022-08-10T00:18:31.428Z,1.45
2022-08-10T00:21:01.501Z,1.88
2022-08-10T00:23:27.649Z,1.55
2022-08-10T00:25:53.715Z,2.97
2022-08-10T00:28:19.820Z,1.83
2022-08-10T00:30:45.903Z,1.42
2022-08-10T00:33:12.305Z,3.83
2022-08-10T00:35:38.365Z,6.13
2022-08-10T00:38:04.501Z,1.90
2022-08-10T00:40:37.169Z,4.82
2022-08-10T00:43:07.454Z,2.35
2022-08-10T00:45:34.724Z,2.60
2022-08-10T00:48:02.491Z,1.88
2022-08-10T00:50:29.071Z,2.17
2022-08-10T00:52:55.466Z,2.90
2022-08-10T00:55:21.946Z,2.38
2022-08-10T00:57:54.807Z,2.33
2022-08-10T01:00:22.492Z,5.07
2022-08-10T01:02:48.731Z,2.50
2022-08-10T01:05:15.104Z,2.08
2022-08-10T01:08:09.048Z,2.40
2022-08-10T01:10:58.457Z,2.35
2022-08-10T01:13:37.028Z,3.83
2022-08-10T01:16:23.418Z,2.38
2022-08-10T01:18:58.838Z,4.75
2022-08-10T01:21:38.993Z,4.00
2022-08-10T01:24:25.117Z,2.03
2022-08-10T01:27:02.720Z,3.08
2022-08-10T01:29:45.346Z,2.78
2022-08-10T01:32:14.343Z,3.72
2022-08-10T01:34:59.039Z,2.17
2022-08-10T01:37:31.674Z,4.20
2022-08-10T01:40:01.557Z,2.42
2022-08-10T01:42:32.207Z,3.15
2022-08-10T01:45:03.469Z,4.75
2022-08-10T01:47:51.996Z,2.60
2022-08-10T01:50:59.615Z,3.00
2022-08-10T01:53:26.367Z,3.90
2022-08-10T01:55:55.409Z,3.17
2022-08-10T01:58:25.641Z,2.60
2022-08-10T02:00:53.787Z,3.65
2022-08-10T02:03:22.113Z,7.63
2022-08-10T02:05:53.897Z,2.85
2022-08-10T02:08:23.193Z,3.03
2022-08-10T02:10:52.057Z,3.25
2022-08-10T02:13:19.150Z,4.63
2022-08-10T02:16:01.315Z,4.78
2022-08-10T02:18:30.738Z,4.82
2022-08-10T02:20:58.944Z,3.20
2022-08-10T02:23:31.231Z,5.28
2022-08-10T02:25:59.664Z,8.07
2022-08-10T02:28:30.960Z,6.55
2022-08-10T02:31:06.437Z,9.95
2022-08-10T02:33:37.051Z,4.05
2022-08-10T02:36:06.881Z,3.38
2022-08-10T02:38:58.526Z,6.15
2022-08-10T02:45:14.099Z,5.88
2022-08-10T02:45:17.698Z,4.82
2022-08-10T02:47:51.432Z,9.23
2022-08-10T02:50:26.521Z,5.35
2022-08-10T02:53:04.429Z,4.70
2022-08-10T02:55:48.254Z,7.32
2022-08-10T02:58:22.192Z,7.53
2022-08-10T03:00:53.228Z,4.93
2022-08-10T03:03:32.398Z,4.85
2022-08-10T03:06:03.050Z,5.57
2022-08-10T03:08:33.213Z,4.68
2022-08-10T03:11:02.309Z,6.00
2022-08-10T03:13:30.215Z,7.25
2022-08-10T03:15:58.009Z,7.80
2022-08-10T03:18:25.168Z,5.40
2022-08-10T03:20:53.333Z,5.95
2022-08-10T03:23:24.492Z,5.88
2022-08-10T03:25:55.051Z,6.50
2022-08-10T03:28:23.849Z,6.55
2022-08-10T03:30:50.470Z,6.40
2022-08-10T03:33:17.462Z,6.22
2022-08-10T03:35:43.528Z,6.90
2022-08-10T03:38:29.734Z,8.70
2022-08-10T03:41:01.066Z,7.85
2022-08-10T03:43:28.890Z,7.97
2022-08-10T03:45:59.059Z,11.20
2022-08-10T03:48:32.107Z,7.10
2022-08-10T03:51:15.893Z,13.43
2022-08-10T03:54:04.749Z,7.22
2022-08-10T03:56:32.238Z,13.18
2022-08-10T03:58:59.741Z,8.40
2022-08-10T04:02:43.821Z,10.48
2022-08-10T04:04:17.551Z,8.95
2022-08-10T04:06:47.192Z,11.32
2022-08-10T04:09:17.461Z,11.53
2022-08-10T04:11:43.618Z,10.43
2022-08-10T04:14:37.935Z,9.88
2022-08-10T04:16:55.871Z,8.82
2022-08-10T04:19:23.294Z,10.68
2022-08-10T04:22:09.810Z,10.23
2022-08-10T04:24:37.989Z,11.65
2022-08-10T04:27:04.611Z,11.00
2022-08-10T04:29:30.769Z,12.63
2022-08-10T04:31:56.839Z,9.35
2022-08-10T04:34:26.299Z,12.45
2022-08-10T04:36:55.783Z,8.90
2022-08-10T04:39:21.963Z,11.60
2022-08-10T04:41:48.266Z,16.55
2022-08-10T04:44:15.054Z,12.13
2022-08-10T04:46:55.529Z,18.15
2022-08-10T04:49:53.854Z,11.38
2022-08-10T04:52:09.872Z,14.82
2022-08-10T04:54:35.940Z,16.98
2022-08-10T04:57:02.182Z,16.30
2022-08-10T04:59:28.259Z,12.55
2022-08-10T05:02:27.049Z,13.90
2022-08-10T05:04:40.529Z,15.77
2022-08-10T05:07:08.850Z,13.48
2022-08-10T05:10:04.633Z,13.48
2022-08-10T05:12:21.737Z,13.32
2022-08-10T05:14:48.234Z,13.20
2022-08-10T05:17:14.644Z,15.48
2022-08-10T05:20:03.060Z,14.73
2022-08-10T05:22:27.019Z,11.73
2022-08-10T05:24:53.068Z,14.95
2022-08-10T05:27:19.153Z,17.17
2022-08-10T05:29:45.278Z,13.00
2022-08-10T05:32:27.994Z,11.80
2022-08-10T05:34:54.156Z,13.18
2022-08-10T05:38:10.202Z,15.95
2022-08-10T05:40:07.960Z,13.88
2022-08-10T05:42:34.836Z,12.25
2022-08-10T05:45:01.233Z,15.27
2022-08-10T05:47:27.494Z,13.05
2022-08-10T05:49:55.416Z,12.45
2022-08-10T05:52:22.195Z,14.07
2022-08-10T05:54:49.348Z,11.32
2022-08-10T05:57:18.926Z,11.48
2022-08-10T06:00:29.592Z,12.85
2022-08-10T06:02:51.460Z,11.13
2022-08-10T06:05:30.866Z,11.70
2022-08-10T06:08:16.765Z,10.52
2022-08-10T06:12:24.023Z,12.13
2022-08-10T06:14:13.403Z,12.50
2022-08-10T06:16:43.003Z,10.70
2022-08-10T06:19:11.896Z,11.85
2022-08-10T06:21:53.632Z,9.57
2022-08-10T06:24:30.709Z,9.80
2022-08-10T06:26:57.972Z,8.20
2022-08-10T06:29:25.814Z,12.95
2022-08-10T06:31:53.436Z,11.30
2022-08-10T06:34:29.758Z,10.38
2022-08-10T06:36:59.364Z,8.27
2022-08-10T06:39:34.062Z,12.20
2022-08-10T06:42:35.139Z,10.02
2022-08-10T06:45:20.316Z,10.93
2022-08-10T06:48:01.790Z,12.77
2022-08-10T06:50:56.405Z,9.85
2022-08-10T06:53:54.232Z,9.65
2022-08-10T06:56:20.073Z,11.40
2022-08-10T06:59:29.040Z,9.05
2022-08-10T07:02:04.967Z,10.77
2022-08-10T07:04:45.188Z,7.88
2022-08-10T07:07:18.397Z,10.65
2022-08-10T07:09:45.412Z,8.25
2022-08-10T07:12:14.190Z,12.32
2022-08-10T07:14:43.713Z,10.32
2022-08-10T07:17:16.618Z,10.95
2022-08-10T07:20:05.707Z,10.18
2022-08-10T07:23:01.437Z,6.22
2022-08-10T07:25:24.549Z,5.70
2022-08-10T07:27:59.064Z,5.60
2022-08-10T07:30:36.159Z,13.38
2022-08-10T07:33:04.248Z,6.75
2022-08-10T07:35:41.530Z,6.10
2022-08-10T07:38:16.232Z,8.20
2022-08-10T07:40:44.605Z,7.97
2022-08-10T07:43:12.921Z,7.28
2022-08-10T07:45:39.838Z,8.82
2022-08-10T07:48:19.205Z,10.98
2022-08-10T07:50:46.716Z,8.73
2022-08-10T07:53:20.231Z,6.20
2022-08-10T07:56:01.645Z,10.20
2022-08-10T07:58:38.951Z,15.77
2022-08-10T08:01:28.624Z,6.68
2022-08-10T08:04:49.116Z,6.32
2022-08-10T08:07:21.298Z,7.00
2022-08-10T08:09:58.190Z,5.07
2022-08-10T08:12:27.619Z,9.52
2022-08-10T08:14:56.245Z,8.02
2022-08-10T08:17:36.284Z,5.70
2022-08-10T08:20:04.084Z,7.65
2022-08-10T08:25:21.603Z,8.35
2022-08-10T08:27:52.400Z,6.72
2022-08-10T08:34:05.186Z,7.25
2022-08-10T08:36:49.465Z,3.30
2022-08-10T08:39:15.826Z,6.22
2022-08-10T08:41:49.727Z,4.00
2022-08-10T08:44:37.609Z,3.97
2022-08-10T08:48:04.117Z,29.50
2022-08-10T08:50:34.823Z,7.95
2022-08-10T08:53:22.267Z,5.03
2022-08-10T08:56:24.229Z,7.95
2022-08-10T08:59:05.025Z,2.70
2022-08-10T09:01:57.610Z,5.63
2022-08-10T09:04:32.702Z,5.68
2022-08-10T09:07:59.133Z,3.80
2022-08-10T09:10:07.097Z,6.93
2022-08-10T09:13:00.709Z,3.13
2022-08-10T09:16:04.335Z,5.10
2022-08-10T09:18:33.458Z,4.85
2022-08-10T09:21:43.445Z,5.30
2022-08-10T09:24:47.701Z,6.07
2022-08-10T09:27:45.032Z,3.42
2022-08-10T09:30:25.986Z,4.28
2022-08-10T09:36:33.318Z,6.07
2022-08-10T09:40:06.547Z,8.30
2022-08-10T09:43:21.539Z,3.60
2022-08-10T09:45:56.164Z,3.88
2022-08-10T09:48:33.128Z,3.40
2022-08-10T09:51:42.119Z,3.33
2022-08-10T09:54:34.334Z,3.53
2022-08-10T09:57:43.986Z,2.05
2022-08-10T10:00:13.733Z,4.78
2022-08-10T10:02:57.253Z,7.28
2022-08-10T10:05:33.251Z,5.32
2022-08-10T10:08:02.122Z,1.33
2022-08-10T10:18:30.878Z,5.90
2022-08-10T10:21:06.484Z,5.20
2022-08-10T10:24:19.944Z,3.67
2022-08-10T10:27:18.157Z,6.18
2022-08-10T10:30:03.959Z,3.92
2022-08-10T10:32:37.148Z,2.03
2022-08-10T10:39:00.808Z,3.95
2022-08-10T10:42:34.949Z,2.03
2022-08-10T10:45:17.505Z,7.90
2022-08-10T10:48:24.146Z,5.30
2022-08-10T10:54:23.082Z,1.67
2022-08-10T10:57:05.784Z,1.52
2022-08-10T11:00:11.242Z,4.88
2022-08-10T11:02:48.930Z,1.52
2022-08-10T11:05:18.713Z,2.85
2022-08-10T11:07:55.991Z,3.60
2022-08-10T11:10:32.490Z,6.55
2022-08-10T11:14:26.092Z,5.30
2022-08-10T11:16:29.291Z,6.50
2022-08-10T11:19:16.771Z,1.88
2022-08-10T11:21:57.022Z,1.88
2022-08-10T11:24:51.636Z,1.27
2022-08-10T11:27:33.129Z,4.43
2022-08-10T11:30:05.701Z,2.28
2022-08-10T11:32:34.896Z,1.67
2022-08-10T11:35:11.402Z,2.95
2022-08-10T11:38:31.303Z,3.50
2022-08-10T11:42:06.533Z,3.80
2022-08-10T11:44:37.924Z,3.70
2022-08-10T11:47:21.538Z,0.77
2022-08-10T11:50:01.453Z,2.45
2022-08-10T11:52:54.490Z,1.67
2022-08-10T11:55:22.696Z,2.92
2022-08-10T11:57:55.519Z,3.92
2022-08-10T12:00:23.895Z,4.28
2022-08-10T12:02:57.384Z,1.42
2022-08-10T12:05:54.825Z,3.13
2022-08-10T12:10:06.980Z,1.73
2022-08-10T12:11:23.928Z,1.55
2022-08-10T12:14:22.011Z,0.55
2022-08-10T12:16:57.302Z,4.57
2022-08-10T12:20:02.438Z,1.58
2022-08-10T12:22:35.826Z,0.70
2022-08-10T12:26:07.124Z,2.92
2022-08-10T12:28:50.959Z,0.98
2022-08-10T12:31:34.554Z,1.63
2022-08-10T12:34:17.685Z,2.45
2022-08-10T12:37:00.061Z,1.08
2022-08-10T12:39:30.284Z,2.38
2022-08-10T12:42:09.674Z,1.75
2022-08-10T12:44:47.780Z,1.02
2022-08-10T12:47:52.077Z,4.50
2022-08-10T12:51:20.584Z,3.40
2022-08-10T12:54:12.801Z,3.30
2022-08-10T12:56:51.921Z,1.40
2022-08-10T12:59:56.272Z,2.90
2022-08-10T13:02:29.219Z,2.45
2022-08-10T13:05:01.731Z,1.40
2022-08-10T13:08:03.550Z,1.77
2022-08-10T13:10:26.135Z,2.93
2022-08-10T13:12:57.214Z,4.82
2022-08-10T13:15:49.127Z,1.17
2022-08-10T13:18:28.641Z,0.70
2022-08-10T13:21:20.658Z,3.90
2022-08-10T13:24:15.902Z,2.90
2022-08-10T13:27:25.982Z,1.48
2022-08-10T13:30:03.955Z,4.55
2022-08-10T13:32:32.767Z,6.60
2022-08-10T13:35:10.253Z,1.60
2022-08-10T13:37:42.700Z,1.00
2022-08-10T13:40:12.316Z,2.30
2022-08-10T13:42:40.387Z,1.95
2022-08-10T13:45:15.835Z,1.15
2022-08-10T13:47:48.784Z,3.47
2022-08-10T13:50:33.339Z,1.48
2022-08-10T13:53:13.230Z,0.82
2022-08-10T13:55:55.262Z,2.43
2022-08-10T13:58:37.612Z,4.40
2022-08-10T14:01:14.373Z,1.85
2022-08-10T14:03:43.694Z,6.63
2022-08-10T14:06:14.972Z,3.83
2022-08-10T14:08:49.655Z,4.93
2022-08-10T14:11:20.931Z,3.83
2022-08-10T14:14:06.357Z,1.30
2022-08-10T14:16:34.244Z,1.83
2022-08-10T14:19:09.860Z,3.55
2022-08-10T14:21:42.716Z,5.28
2022-08-10T14:24:29.947Z,4.03
2022-08-10T14:27:07.008Z,4.57
2022-08-10T14:29:47.209Z,3.47
2022-08-10T14:32:16.364Z,5.97
2022-08-10T14:34:59.289Z,7.50
2022-08-10T14:37:38.052Z,3.72
2022-08-10T14:40:07.436Z,2.33
2022-08-10T14:42:43.975Z,2.28
2022-08-10T14:45:29.613Z,2.08
2022-08-10T14:48:31.691Z,1.92
2022-08-10T14:51:01.283Z,1.15
2022-08-10T14:53:34.560Z,4.18
2022-08-10T14:56:27.974Z,4.47
2022-08-10T14:59:06.734Z,2.55
2022-08-10T15:02:00.240Z,6.30
2022-08-10T15:04:30.640Z,3.05
2022-08-10T15:07:03.822Z,8.20
2022-08-10T15:09:59.435Z,6.97
2022-08-10T15:12:38.470Z,2.85
2022-08-10T15:15:08.983Z,3.97
2022-08-10T15:20:30.803Z,5.25
2022-08-10T15:23:05.612Z,2.70
2022-08-10T15:25:40.668Z,1.92
2022-08-10T15:28:24.823Z,3.17
2022-08-10T15:31:04.199Z,3.90
2022-08-10T15:34:10.591Z,2.50
2022-08-10T15:37:39.263Z,4.63
2022-08-10T15:40:30.898Z,3.97
2022-08-10T15:43:05.633Z,3.47
2022-08-10T15:46:04.344Z,8.88
2022-08-10T15:48:43.817Z,3.47
2022-08-10T15:51:53.645Z,4.75
2022-08-10T15:54:33.363Z,5.10
2022-08-10T15:57:06.103Z,1.90
2022-08-10T15:59:42.656Z,4.50
2022-08-10T16:02:17.679Z,5.05
2022-08-10T16:04:58.297Z,3.53
2022-08-10T16:07:45.455Z,1.73
2022-08-10T16:13:59.608Z,6.65
2022-08-10T16:16:18.723Z,4.38
2022-08-10T16:18:48.738Z,1.95
2022-08-10T16:21:23.676Z,1.60
2022-08-10T16:24:15.718Z,3.95
2022-08-10T16:26:52.533Z,2.78
2022-08-10T16:29:25.460Z,4.78
2022-08-10T16:31:57.294Z,5.68
2022-08-10T16:34:28.155Z,5.35
2022-08-10T16:37:13.719Z,2.83
2022-08-10T16:40:01.483Z,2.80
2022-08-10T16:42:34.113Z,3.40
2022-08-10T16:45:16.997Z,1.35
2022-08-10T16:47:49.270Z,3.38
2022-08-10T16:50:22.792Z,5.60
2022-08-10T16:52:53.857Z,10.55
2022-08-10T16:55:24.443Z,1.48
2022-08-10T16:58:13.539Z,4.80
2022-08-10T17:00:42.678Z,3.53
2022-08-10T17:04:04.880Z,3.15
2022-08-10T17:06:10.978Z,4.20
2022-08-10T17:08:52.269Z,3.37
2022-08-10T17:11:21.461Z,3.25
2022-08-10T17:13:48.389Z,4.57
2022-08-10T17:16:16.722Z,2.08
2022-08-10T17:18:46.735Z,3.70
2022-08-10T17:21:25.161Z,6.50
2022-08-10T17:23:54.670Z,3.30
2022-08-10T17:26:35.246Z,1.10
2022-08-10T17:29:17.432Z,3.80
2022-08-10T17:32:44.070Z,1.20
2022-08-10T17:35:13.748Z,3.30
2022-08-10T17:37:47.181Z,4.57
2022-08-10T17:40:20.728Z,4.32
2022-08-10T17:42:48.444Z,2.28
2022-08-10T17:45:46.776Z,2.35
2022-08-10T17:48:08.782Z,1.30
2022-08-10T17:50:37.362Z,3.22
2022-08-10T17:53:08.075Z,3.50
2022-08-10T17:55:36.985Z,2.13
2022-08-10T17:58:10.095Z,3.00
2022-08-10T18:00:45.242Z,2.28
2022-08-10T18:03:25.253Z,2.60
2022-08-10T18:06:05.054Z,4.78
2022-08-10T18:08:39.486Z,5.00
2022-08-10T18:11:10.418Z,3.42
2022-08-10T18:13:55.657Z,4.57
2022-08-10T18:16:26.929Z,3.05
2022-08-10T18:19:00.873Z,3.90
2022-08-10T18:21:28.956Z,5.35
2022-08-10T18:24:05.938Z,1.87
2022-08-10T18:26:35.827Z,4.07
2022-08-10T18:29:05.284Z,2.47
2022-08-10T18:31:33.086Z,3.95
2022-08-10T18:34:01.561Z,2.53
2022-08-10T18:36:29.059Z,5.85
2022-08-10T18:38:56.450Z,7.10
2022-08-10T18:41:36.888Z,3.92
2022-08-10T18:44:11.829Z,11.38
2022-08-10T18:46:45.513Z,5.50
2022-08-10T18:49:18.647Z,2.42
2022-08-10T18:51:48.860Z,1.33
2022-08-10T18:54:38.992Z,2.60
2022-08-10T19:00:09.297Z,1.63
2022-08-10T19:02:47.542Z,1.90
2022-08-10T19:05:43.377Z,1.27
2022-08-10T19:08:30.260Z,2.85
2022-08-10T19:11:41.516Z,7.95
2022-08-10T19:14:34.254Z,6.03
2022-08-10T19:17:24.568Z,3.00
2022-08-10T19:20:09.117Z,3.10
2022-08-10T19:23:02.423Z,2.63
2022-08-10T19:26:42.865Z,3.25
2022-08-10T19:28:37.610Z,7.72
2022-08-10T19:31:13.020Z,3.67
2022-08-10T19:34:11.324Z,3.15
2022-08-10T19:37:11.030Z,4.32
2022-08-10T19:39:55.405Z,11.85
2022-08-10T19:42:50.909Z,10.57
2022-08-10T19:46:03.222Z,6.05
2022-08-10T19:48:37.542Z,2.30
2022-08-10T19:51:12.771Z,11.38
2022-08-10T19:53:38.773Z,6.00
2022-08-10T19:56:34.490Z,9.10
2022-08-10T20:00:15.926Z,3.78
2022-08-10T20:02:15.274Z,6.80
2022-08-10T20:04:51.910Z,6.00
2022-08-10T20:07:54.227Z,4.25
2022-08-10T20:10:52.606Z,2.80
2022-08-10T20:13:28.836Z,3.10
2022-08-10T20:16:05.611Z,2.15
2022-08-10T20:18:56.802Z,2.28
2022-08-10T20:21:42.509Z,4.95
2022-08-10T20:24:10.993Z,5.38
2022-08-10T20:26:51.959Z,3.42
2022-08-10T20:29:58.518Z,2.40
2022-08-10T20:32:23.655Z,6.05
2022-08-10T20:34:55.224Z,5.45
2022-08-10T20:37:36.890Z,2.15
2022-08-10T20:40:19.489Z,6.70
2022-08-10T20:43:23.680Z,5.13
2022-08-10T20:46:10.402Z,4.35
2022-08-10T20:48:45.302Z,3.35
2022-08-10T20:51:18.600Z,3.67
2022-08-10T20:53:55.885Z,5.03
2022-08-10T20:56:37.067Z,4.93
2022-08-10T20:59:33.666Z,2.85
2022-08-10T21:02:54.371Z,6.57
2022-08-10T21:05:33.512Z,3.42
2022-08-10T21:08:20.451Z,2.88
2022-08-10T21:11:02.457Z,6.95
2022-08-10T21:13:44.603Z,2.25
2022-08-10T21:16:32.111Z,1.80
2022-08-10T21:19:10.132Z,8.85
2022-08-10T21:25:01.435Z,4.18
2022-08-10T21:25:42.253Z,5.72
2022-08-10T21:28:05.694Z,3.15
2022-08-10T21:31:05.908Z,6.55
2022-08-10T21:33:44.589Z,5.47
2022-08-10T21:36:24.398Z,7.90
2022-08-10T21:39:14.720Z,5.07
2022-08-10T21:42:14.921Z,2.95
2022-08-10T21:45:47.568Z,5.00
2022-08-10T21:48:57.658Z,4.72
2022-08-10T21:52:11.913Z,7.90
2022-08-10T21:55:21.345Z,8.73
2022-08-10T21:58:15.189Z,4.38
2022-08-10T22:01:17.056Z,4.90
2022-08-10T22:04:02.472Z,2.40
2022-08-10T22:06:52.739Z,6.00
2022-08-10T22:09:44.992Z,4.00
2022-08-10T22:12:32.666Z,7.15
2022-08-10T22:16:03.177Z,3.25
2022-08-10T22:18:35.308Z,9.40
2022-08-10T22:21:45.777Z,6.38
2022-08-10T22:24:52.222Z,3.08
2022-08-10T22:27:53.236Z,7.63
2022-08-10T22:30:42.117Z,6.45
2022-08-10T22:33:43.604Z,9.35
2022-08-10T22:36:50.327Z,6.32
2022-08-10T22:40:11.137Z,3.22
2022-08-10T22:43:12.524Z,7.88
2022-08-10T22:46:12.785Z,4.43
2022-08-10T22:48:59.278Z,4.50
2022-08-10T22:52:11.936Z,5.90
2022-08-10T22:55:04.835Z,5.88
2022-08-10T22:57:49.601Z,6.90
2022-08-10T23:00:18.883Z,4.78
2022-08-10T23:03:08.954Z,7.63
2022-08-10T23:05:48.573Z,5.72
2022-08-10T23:08:32.331Z,7.63
2022-08-10T23:11:07.616Z,8.15
2022-08-10T23:13:41.116Z,4.20
2022-08-10T23:16:36.748Z,8.38
2022-08-10T23:19:30.104Z,7.13
2022-08-10T23:22:05.828Z,6.90
2022-08-10T23:24:45.929Z,5.38
2022-08-10T23:27:38.424Z,6.88
2022-08-10T23:30:10.559Z,5.38
2022-08-10T23:32:44.782Z,7.45
2022-08-10T23:36:30.501Z,6.72
2022-08-10T23:38:11.384Z,4.55
2022-08-10T23:40:43.086Z,7.40
2022-08-10T23:43:18.430Z,7.80
2022-08-10T23:45:56.305Z,7.15
2022-08-10T23:48:26.095Z,8.52
2022-08-10T23:51:16.529Z,5.15
2022-08-10T23:53:45.935Z,11.32
2022-08-10T23:56:18.734Z,5.20
2022-08-10T23:58:55.035Z,9.52
